Time;durP1;ratioP1;P1;durP2;ratioP2;P2;SDS_P1;SDS_P2;PMS_P1;PMS_P2;Temp;Humidity;BMP_temperature;BMP_pressure;BME280_temperature;BME280_humidity;BME280_pressure;Samples;Min_cycle;Max_cycle;Signal;HPM_P1;HPM_P2
2023/01/14 00:00:13;;;;;;;5.47;2.00;;;4.80;99.90;;;;;;5031612;28;20029;-54
2023/01/14 00:02:39;;;;;;;1.85;1.70;;;4.80;99.90;;;;;;5031351;28;20021;-53
2023/01/14 00:05:05;;;;;;;2.38;2.17;;;4.70;99.90;;;;;;5031537;28;20031;-55
2023/01/14 00:07:30;;;;;;;2.10;2.00;;;4.70;99.90;;;;;;5031246;28;20556;-53
2023/01/14 00:09:56;;;;;;;3.28;1.85;;;4.60;99.90;;;;;;5031604;28;20030;-54
2023/01/14 00:12:22;;;;;;;2.65;1.90;;;4.60;99.90;;;;;;5031183;28;20082;-55
2023/01/14 00:14:47;;;;;;;2.95;1.70;;;4.50;99.90;;;;;;5031456;28;20805;-49
2023/01/14 00:17:13;;;;;;;4.53;2.17;;;4.50;99.90;;;;;;5031786;28;20067;-54
2023/01/14 00:19:38;;;;;;;2.30;2.05;;;4.50;99.90;;;;;;5031146;28;20465;-56
2023/01/14 00:22:05;;;;;;;2.00;1.67;;;4.50;99.90;;;;;;5030857;28;20021;-55
2023/01/14 00:24:31;;;;;;;2.63;1.88;;;4.40;99.90;;;;;;5031296;28;20030;-54
2023/01/14 00:26:57;;;;;;;2.97;1.77;;;4.50;99.90;;;;;;5031258;28;20037;-51
2023/01/14 00:29:34;;;;;;;3.08;1.83;;;4.60;99.90;;;;;;5031422;28;20024;-53
2023/01/14 00:32:03;;;;;;;2.60;2.17;;;4.50;99.90;;;;;;5031600;28;20017;-53
2023/01/14 00:34:30;;;;;;;1.95;1.85;;;4.50;99.90;;;;;;5031216;28;20026;-53
2023/01/14 00:36:56;;;;;;;3.60;2.47;;;4.40;99.90;;;;;;5031371;28;20033;-52
2023/01/14 00:39:22;;;;;;;3.00;1.90;;;4.30;99.90;;;;;;5031088;28;20064;-51
2023/01/14 00:41:48;;;;;;;4.45;2.47;;;4.30;99.90;;;;;;5031225;28;20033;-54
2023/01/14 00:44:14;;;;;;;1.92;1.83;;;4.30;99.90;;;;;;5031104;28;20049;-51
2023/01/14 00:46:41;;;;;;;3.53;2.13;;;4.20;99.90;;;;;;5030947;28;20064;-56
2023/01/14 00:49:15;;;;;;;2.50;2.03;;;4.20;99.90;;;;;;5031407;28;20025;-54
2023/01/14 00:51:40;;;;;;;2.65;1.95;;;4.20;99.90;;;;;;5030732;28;20100;-53
2023/01/14 00:54:06;;;;;;;3.83;1.70;;;4.30;99.90;;;;;;5030898;28;20112;-54
2023/01/14 00:56:32;;;;;;;3.88;1.63;;;4.40;99.90;;;;;;5030752;28;20061;-52
2023/01/14 00:58:57;;;;;;;3.13;2.00;;;4.30;99.90;;;;;;5030894;28;20571;-54
2023/01/14 01:01:24;;;;;;;2.10;1.83;;;4.40;99.90;;;;;;5030993;28;20407;-53
2023/01/14 01:03:52;;;;;;;3.13;2.83;;;4.40;99.90;;;;;;5030507;28;20507;-52
2023/01/14 01:06:20;;;;;;;2.65;1.77;;;4.40;99.90;;;;;;5028607;28;20037;-50
2023/01/14 01:08:46;;;;;;;7.05;2.30;;;4.40;99.90;;;;;;5029997;28;20026;-50
2023/01/14 01:11:12;;;;;;;2.80;2.00;;;4.40;99.90;;;;;;5030062;28;20488;-51
2023/01/14 01:13:38;;;;;;;2.58;2.10;;;4.40;99.90;;;;;;5030655;28;20028;-54
2023/01/14 01:16:08;;;;;;;5.63;2.30;;;4.40;99.90;;;;;;5031081;28;20033;-53
2023/01/14 01:18:35;;;;;;;4.03;2.25;;;4.40;99.90;;;;;;5031036;28;20048;-52
2023/01/14 01:21:10;;;;;;;8.30;3.70;;;4.40;99.90;;;;;;5030976;28;20083;-51
2023/01/14 01:23:40;;;;;;;4.63;2.10;;;4.40;99.90;;;;;;5031946;28;20025;-54
2023/01/14 01:26:07;;;;;;;1.95;1.85;;;4.40;99.90;;;;;;5034589;28;20084;-53
2023/01/14 01:28:33;;;;;;;5.40;2.00;;;4.50;99.90;;;;;;5034534;28;20028;-51
2023/01/14 01:31:04;;;;;;;3.13;1.90;;;4.50;99.90;;;;;;5032824;28;20036;-50
2023/01/14 01:33:30;;;;;;;1.90;1.80;;;4.60;99.90;;;;;;5034701;28;20052;-57
2023/01/14 01:36:01;;;;;;;4.05;1.98;;;4.60;99.90;;;;;;5034076;28;20061;-57
2023/01/14 01:38:26;;;;;;;3.00;1.90;;;4.50;99.90;;;;;;5034446;28;20026;-51
2023/01/14 01:40:52;;;;;;;2.25;1.77;;;4.50;99.90;;;;;;5034086;28;20029;-51
2023/01/14 01:43:19;;;;;;;3.45;1.63;;;4.60;99.90;;;;;;5032628;28;20029;-48
2023/01/14 01:45:47;;;;;;;3.47;1.88;;;4.60;99.90;;;;;;5033794;28;20037;-51
2023/01/14 01:48:19;;;;;;;2.95;1.88;;;4.60;99.90;;;;;;5034287;28;20029;-52
2023/01/14 01:51:05;;;;;;;3.03;1.90;;;4.60;99.90;;;;;;5034061;28;20057;-51
2023/01/14 01:53:38;;;;;;;4.78;2.42;;;4.60;99.90;;;;;;5033847;28;20724;-55
2023/01/14 01:56:05;;;;;;;7.03;2.23;;;4.60;99.90;;;;;;5033969;28;20112;-56
2023/01/14 01:58:32;;;;;;;5.18;1.83;;;4.60;99.90;;;;;;5033928;28;20056;-51
2023/01/14 02:00:58;;;;;;;7.00;2.50;;;4.60;99.90;;;;;;5033877;28;20021;-52
2023/01/14 02:03:33;;;;;;;1.83;1.65;;;4.60;99.90;;;;;;5033727;28;20025;-54
2023/01/14 02:05:59;;;;;;;6.88;2.70;;;4.60;99.90;;;;;;5033759;28;20071;-54
2023/01/14 02:08:25;;;;;;;4.60;1.98;;;4.70;99.90;;;;;;5033928;28;20472;-51
2023/01/14 02:10:57;;;;;;;1.77;1.67;;;4.70;99.90;;;;;;5033727;28;20029;-54
2023/01/14 02:13:43;;;;;;;2.78;2.05;;;4.80;99.90;;;;;;5033737;28;20040;-53
2023/01/14 02:16:28;;;;;;;3.63;2.00;;;4.80;99.90;;;;;;5032274;28;20144;-53
2023/01/14 02:19:17;;;;;;;2.90;2.10;;;4.80;99.90;;;;;;5032408;28;20365;-57
2023/01/14 02:21:59;;;;;;;3.65;2.58;;;4.80;99.90;;;;;;5030586;28;20029;-52
2023/01/14 02:24:45;;;;;;;2.25;2.00;;;4.70;99.90;;;;;;5033826;28;20153;-52
2023/01/14 02:27:30;;;;;;;6.07;2.10;;;4.60;99.90;;;;;;5033028;28;20038;-51
2023/01/14 02:30:29;;;;;;;1.83;1.73;;;4.60;99.90;;;;;;5033594;28;20530;-54
2023/01/14 02:33:20;;;;;;;1.80;1.70;;;4.50;99.90;;;;;;5033505;28;20021;-53
2023/01/14 02:36:08;;;;;;;3.13;1.92;;;4.40;99.90;;;;;;5032742;28;20083;-55
2023/01/14 02:38:52;;;;;;;3.13;1.88;;;4.30;99.90;;;;;;5033392;28;20056;-55
2023/01/14 02:44:29;;;;;;;4.22;2.55;;;4.30;99.90;;;;;;5033244;28;20291;-51
2023/01/14 02:47:07;;;;;;;6.00;2.20;;;4.20;99.90;;;;;;5032904;28;20021;-54
2023/01/14 02:49:39;;;;;;;5.30;2.50;;;4.10;99.90;;;;;;5032988;28;20024;-56
2023/01/14 02:52:06;;;;;;;1.80;1.70;;;4.10;99.90;;;;;;5033259;28;20053;-50
2023/01/14 02:54:31;;;;;;;3.83;2.08;;;4.00;99.90;;;;;;5032944;28;20033;-54
2023/01/14 02:57:23;;;;;;;2.05;1.85;;;4.00;99.90;;;;;;5032677;28;20514;-52
2023/01/14 03:00:07;;;;;;;5.45;1.90;;;4.10;99.90;;;;;;5011236;28;20045;-52
2023/01/14 03:03:00;;;;;;;4.28;2.17;;;4.20;99.90;;;;;;5013064;28;20041;-54
2023/01/14 03:05:37;;;;;;;3.47;2.30;;;4.30;99.90;;;;;;5016406;28;20022;-51
2023/01/14 03:08:21;;;;;;;3.95;2.13;;;4.30;99.90;;;;;;5032823;28;20040;-51
2023/01/14 03:11:00;;;;;;;2.47;1.90;;;4.40;99.90;;;;;;5032369;28;20017;-56
2023/01/14 03:13:53;;;;;;;2.35;2.00;;;4.50;99.90;;;;;;5032766;28;20037;-53
2023/01/14 03:16:28;;;;;;;3.15;2.10;;;4.50;99.90;;;;;;5032388;28;20104;-52
2023/01/14 03:19:08;;;;;;;2.95;2.60;;;4.50;99.90;;;;;;5032268;28;20103;-55
2023/01/14 03:21:41;;;;;;;6.85;2.47;;;4.60;99.90;;;;;;5016526;28;20033;-52
2023/01/14 03:24:18;;;;;;;3.17;2.33;;;4.50;99.90;;;;;;5032419;28;20029;-52
2023/01/14 03:26:47;;;;;;;6.47;2.47;;;4.50;99.90;;;;;;5017635;28;20040;-55
2023/01/14 03:29:22;;;;;;;8.90;6.75;;;4.60;99.90;;;;;;5032154;28;20025;-52
2023/01/14 03:32:05;;;;;;;9.20;6.13;;;4.60;99.90;;;;;;5032147;28;20053;-53
2023/01/14 03:34:47;;;;;;;2.83;2.53;;;4.60;99.90;;;;;;5032144;28;20020;-52
2023/01/14 03:37:14;;;;;;;5.65;2.55;;;4.60;99.90;;;;;;5032392;28;20026;-50
2023/01/14 03:39:43;;;;;;;2.78;2.00;;;4.70;99.90;;;;;;5032000;28;20025;-51
2023/01/14 03:42:20;;;;;;;2.70;2.22;;;4.70;99.90;;;;;;5032118;28;20595;-53
2023/01/14 03:44:57;;;;;;;10.68;2.35;;;4.70;99.90;;;;;;5031728;28;20094;-51
2023/01/14 03:47:26;;;;;;;4.82;2.00;;;4.80;99.90;;;;;;5029537;28;20033;-51
2023/01/14 03:49:52;;;;;;;2.03;1.85;;;4.90;99.90;;;;;;5030403;28;20044;-52
2023/01/14 03:52:53;;;;;;;4.70;3.67;;;4.90;99.90;;;;;;5031704;28;20027;-52
2023/01/14 03:55:49;;;;;;;2.40;2.20;;;4.90;99.90;;;;;;5031882;28;20057;-54
2023/01/14 03:58:25;;;;;;;7.60;2.83;;;4.90;99.90;;;;;;5031861;28;20030;-54
2023/01/14 04:00:56;;;;;;;4.05;3.13;;;4.90;99.90;;;;;;5031685;28;20034;-52
2023/01/14 04:03:23;;;;;;;2.85;1.90;;;4.90;99.90;;;;;;5032035;28;20044;-51
2023/01/14 04:05:50;;;;;;;3.88;2.00;;;4.90;99.90;;;;;;5031752;28;20516;-50
2023/01/14 04:08:20;;;;;;;2.03;1.92;;;4.90;99.90;;;;;;5031437;28;20111;-54
2023/01/14 04:10:45;;;;;;;2.92;1.98;;;4.90;99.90;;;;;;5031563;28;20030;-54
2023/01/14 04:15:59;;;;;;;4.47;2.47;;;4.90;99.90;;;;;;5031875;28;20087;-54
2023/01/14 04:18:25;;;;;;;4.85;2.67;;;4.80;99.90;;;;;;5031469;28;20539;-51
2023/01/14 04:20:50;;;;;;;2.05;1.90;;;4.80;99.90;;;;;;5031436;28;20063;-52
2023/01/14 04:23:16;;;;;;;9.10;3.50;;;4.80;99.90;;;;;;5031493;28;20035;-52
2023/01/14 04:25:42;;;;;;;4.15;3.65;;;4.80;99.90;;;;;;5031354;28;20194;-53
2023/01/14 04:28:07;;;;;;;11.43;3.90;;;4.90;99.90;;;;;;5031552;28;20052;-51
2023/01/14 04:30:33;;;;;;;4.00;2.10;;;4.90;99.90;;;;;;5031304;28;20025;-55
2023/01/14 04:32:59;;;;;;;6.40;2.92;;;4.90;99.90;;;;;;5031468;28;20485;-54
2023/01/14 04:35:24;;;;;;;6.93;2.35;;;4.90;99.90;;;;;;5031320;28;20208;-56
2023/01/14 04:37:51;;;;;;;3.25;1.90;;;4.80;99.90;;;;;;5031297;28;20447;-54
2023/01/14 04:40:17;;;;;;;6.20;2.03;;;4.90;99.90;;;;;;5031466;28;20037;-50
2023/01/14 04:42:43;;;;;;;6.20;2.10;;;4.80;99.90;;;;;;5031436;28;20091;-54
2023/01/14 04:45:10;;;;;;;5.75;3.80;;;4.80;99.90;;;;;;5031193;28;20049;-56
2023/01/14 04:47:38;;;;;;;5.20;3.33;;;4.80;99.90;;;;;;5031384;28;20037;-53
2023/01/14 04:50:30;;;;;;;7.20;2.45;;;4.70;99.90;;;;;;5031167;28;20104;-53
2023/01/14 04:52:50;;;;;;;2.80;1.95;;;4.70;99.90;;;;;;5029009;28;20124;-55
2023/01/14 04:55:16;;;;;;;4.35;2.30;;;4.60;99.90;;;;;;5031276;28;20100;-53
2023/01/14 04:57:42;;;;;;;3.30;2.30;;;4.60;99.90;;;;;;5032568;28;20075;-52
2023/01/14 05:00:09;;;;;;;2.83;2.15;;;4.40;99.90;;;;;;5033895;28;20029;-51
2023/01/14 05:02:35;;;;;;;8.50;3.80;;;4.40;99.90;;;;;;5034765;28;20033;-53
2023/01/14 05:05:00;;;;;;;6.45;2.25;;;4.30;99.90;;;;;;5033626;28;20033;-52
2023/01/14 05:07:26;;;;;;;5.55;2.38;;;4.20;99.90;;;;;;5033303;28;20026;-49
2023/01/14 05:09:51;;;;;;;5.47;2.35;;;4.10;99.90;;;;;;5034809;28;20518;-52
2023/01/14 05:12:17;;;;;;;5.25;2.40;;;4.10;99.90;;;;;;5034755;28;20029;-54
2023/01/14 05:14:43;;;;;;;2.58;2.03;;;4.00;99.90;;;;;;5034591;28;20032;-51
2023/01/14 05:17:08;;;;;;;7.15;2.75;;;3.90;99.90;;;;;;5034718;28;20021;-50
2023/01/14 05:19:34;;;;;;;6.68;2.90;;;3.90;99.90;;;;;;5034613;28;20035;-52
2023/01/14 05:22:00;;;;;;;10.13;2.65;;;3.90;99.90;;;;;;5034276;28;20040;-51
2023/01/14 05:24:27;;;;;;;4.93;2.38;;;3.90;99.90;;;;;;5034630;28;20112;-52
2023/01/14 05:26:52;;;;;;;5.80;2.35;;;3.80;99.90;;;;;;5034570;28;20121;-51
2023/01/14 05:29:18;;;;;;;7.10;2.70;;;3.80;99.90;;;;;;5034659;28;20113;-52
2023/01/14 05:31:46;;;;;;;6.55;3.40;;;3.70;99.90;;;;;;5034388;28;20025;-51
2023/01/14 05:34:12;;;;;;;3.65;2.88;;;3.70;99.90;;;;;;5034104;28;20056;-52
2023/01/14 05:36:37;;;;;;;9.77;2.75;;;3.70;99.90;;;;;;5034339;28;20032;-57
2023/01/14 05:39:03;;;;;;;14.07;4.07;;;3.60;99.90;;;;;;5034508;28;20053;-50
2023/01/14 05:41:29;;;;;;;6.63;2.53;;;3.40;99.90;;;;;;5034586;28;20029;-53
2023/01/14 05:46:39;;;;;;;10.60;3.38;;;3.30;99.90;;;;;;5021097;28;20381;-49
2023/01/14 05:49:05;;;;;;;8.65;4.30;;;3.30;99.90;;;;;;5034093;28;20034;-50
2023/01/14 05:51:30;;;;;;;9.60;3.28;;;3.30;99.90;;;;;;5034122;28;20045;-52
2023/01/14 05:53:56;;;;;;;3.95;2.50;;;3.30;99.90;;;;;;5034243;28;20132;-52
2023/01/14 05:56:22;;;;;;;3.70;2.67;;;3.20;99.90;;;;;;5034011;28;20025;-52
2023/01/14 05:58:47;;;;;;;5.68;3.15;;;3.20;99.90;;;;;;5034115;28;20464;-50
2023/01/14 06:06:47;;;;;;;6.13;2.40;;;2.90;99.90;;;;;;5014196;28;20571;-54
2023/01/14 06:09:14;;;;;;;9.25;6.30;;;2.90;99.90;;;;;;5026616;28;20086;-52
2023/01/14 06:11:40;;;;;;;5.03;3.38;;;3.00;99.90;;;;;;5033567;28;20030;-52
2023/01/14 06:14:05;;;;;;;5.30;3.10;;;3.10;99.90;;;;;;5033740;28;20018;-54
2023/01/14 06:16:39;;;;;;;5.35;2.47;;;3.20;99.90;;;;;;5033589;28;20022;-51
2023/01/14 06:19:10;;;;;;;5.43;2.90;;;3.30;99.90;;;;;;5033794;28;20510;-52
2023/01/14 06:21:36;;;;;;;5.72;2.60;;;3.40;99.90;;;;;;5014002;28;20030;-52
2023/01/14 06:24:02;;;;;;;5.47;2.72;;;3.30;99.90;;;;;;5032242;28;20090;-51
2023/01/14 06:26:28;;;;;;;10.68;3.05;;;3.40;99.90;;;;;;5032093;28;20025;-55
2023/01/14 06:28:56;;;;;;;3.88;2.33;;;3.40;99.90;;;;;;5033075;28;20664;-54
2023/01/14 06:31:22;;;;;;;6.25;3.20;;;3.50;99.90;;;;;;5033527;28;20053;-51
2023/01/14 06:33:47;;;;;;;7.82;2.95;;;3.50;99.90;;;;;;5033158;28;20162;-51
2023/01/14 06:36:14;;;;;;;5.43;2.70;;;3.60;99.90;;;;;;5033457;28;20013;-50
2023/01/14 06:38:40;;;;;;;3.05;2.60;;;3.80;99.90;;;;;;5033412;28;20029;-50
2023/01/14 06:41:08;;;;;;;7.38;3.65;;;3.90;99.90;;;;;;5033195;28;20033;-51
2023/01/14 06:43:35;;;;;;;8.18;2.83;;;3.90;99.90;;;;;;5033105;28;20030;-55
2023/01/14 06:46:01;;;;;;;5.05;3.20;;;3.90;99.90;;;;;;5032690;28;20041;-52
2023/01/14 06:48:27;;;;;;;9.00;3.33;;;3.80;99.90;;;;;;5033423;28;20037;-56
2023/01/14 06:50:52;;;;;;;8.50;4.10;;;3.70;99.90;;;;;;5032539;28;20026;-57
2023/01/14 06:53:18;;;;;;;10.20;5.50;;;3.60;99.90;;;;;;5032794;28;20032;-52
2023/01/14 06:55:44;;;;;;;3.20;2.78;;;3.60;99.90;;;;;;5033060;28;20027;-52
2023/01/14 06:58:10;;;;;;;5.25;2.95;;;3.60;99.90;;;;;;5033097;28;20025;-54
2023/01/14 07:00:37;;;;;;;4.10;2.35;;;3.60;99.90;;;;;;5032601;28;20540;-52
2023/01/14 07:03:03;;;;;;;4.82;3.10;;;3.60;99.90;;;;;;5032814;28;20104;-54
2023/01/14 07:05:28;;;;;;;11.05;4.28;;;3.60;99.90;;;;;;5032681;28;20034;-52
2023/01/14 07:07:54;;;;;;;8.27;4.57;;;3.50;99.90;;;;;;5032366;28;20026;-54
2023/01/14 07:10:20;;;;;;;6.15;3.47;;;3.50;99.90;;;;;;5032397;28;20029;-55
2023/01/14 07:12:50;;;;;;;6.07;2.80;;;3.40;99.90;;;;;;5032491;28;20022;-54
2023/01/14 07:15:18;;;;;;;3.72;2.80;;;3.50;99.90;;;;;;5032523;28;20079;-55
2023/01/14 07:17:45;;;;;;;9.13;5.00;;;3.50;99.90;;;;;;5032727;28;20026;-57
2023/01/14 07:20:12;;;;;;;8.43;4.85;;;3.50;99.90;;;;;;5032168;28;20033;-57
2023/01/14 07:22:37;;;;;;;4.28;3.17;;;3.40;99.90;;;;;;5032396;28;20033;-54
2023/01/14 07:25:05;;;;;;;6.38;2.60;;;3.40;99.90;;;;;;5031993;28;20021;-55
2023/01/14 07:27:31;;;;;;;10.55;3.80;;;3.20;99.90;;;;;;5031837;28;20064;-54
2023/01/14 07:29:57;;;;;;;5.43;3.17;;;3.20;99.90;;;;;;5032312;28;20053;-52
2023/01/14 07:32:23;;;;;;;14.88;7.43;;;3.10;99.90;;;;;;5031959;28;20045;-54
2023/01/14 07:34:49;;;;;;;13.10;5.80;;;3.10;99.90;;;;;;5030257;28;20021;-53
2023/01/14 07:37:15;;;;;;;40.70;23.77;;;3.10;99.90;;;;;;5030000;28;20022;-54
2023/01/14 07:39:40;;;;;;;19.33;10.43;;;3.00;99.90;;;;;;5031452;28;20026;-55
2023/01/14 07:42:06;;;;;;;52.22;24.95;;;2.90;99.90;;;;;;5032376;28;20091;-54
2023/01/14 07:44:32;;;;;;;36.90;16.00;;;2.90;99.90;;;;;;5029887;28;20041;-53
2023/01/14 07:46:57;;;;;;;31.48;14.65;;;3.00;99.90;;;;;;5031658;28;20040;-53
2023/01/14 07:49:24;;;;;;;24.55;11.35;;;3.10;99.90;;;;;;5032020;28;20021;-52
2023/01/14 07:51:51;;;;;;;22.88;11.40;;;3.10;99.90;;;;;;5030360;28;20048;-57
2023/01/14 07:54:17;;;;;;;24.00;12.25;;;3.20;99.90;;;;;;5030361;28;20029;-51
2023/01/14 07:56:43;;;;;;;18.48;9.80;;;3.30;99.90;;;;;;5031646;28;20033;-57
2023/01/14 07:59:09;;;;;;;23.25;10.32;;;3.30;99.90;;;;;;5030266;28;20021;-56
2023/01/14 08:01:35;;;;;;;21.05;9.43;;;3.40;99.90;;;;;;5031268;28;20037;-56
2023/01/14 08:04:01;;;;;;;12.25;6.45;;;3.40;99.90;;;;;;5031792;28;20018;-52
2023/01/14 08:06:28;;;;;;;12.13;5.63;;;3.50;99.90;;;;;;5029977;28;20665;-58
2023/01/14 08:08:53;;;;;;;15.02;4.82;;;3.60;99.90;;;;;;5031708;28;20415;-58
2023/01/14 08:11:19;;;;;;;9.93;4.00;;;3.60;99.90;;;;;;5031670;28;20143;-58
2023/01/14 08:13:45;;;;;;;5.70;3.28;;;3.70;99.90;;;;;;5031529;28;20112;-58
2023/01/14 08:16:13;;;;;;;11.20;4.72;;;3.80;99.90;;;;;;5031947;28;20041;-56
2023/01/14 08:18:38;;;;;;;8.40;4.43;;;3.80;99.90;;;;;;5031622;28;20021;-59
2023/01/14 08:21:06;;;;;;;9.60;5.22;;;3.80;99.90;;;;;;5031896;28;20025;-58
2023/01/14 08:23:33;;;;;;;8.60;4.00;;;3.70;99.90;;;;;;5031393;28;20075;-55
2023/01/14 08:26:03;;;;;;;6.65;4.80;;;3.70;99.90;;;;;;5031334;28;20009;-59
2023/01/14 08:28:29;;;;;;;11.60;7.22;;;3.70;99.90;;;;;;5030770;28;20037;-59
2023/01/14 08:31:06;;;;;;;12.05;5.20;;;3.70;99.90;;;;;;5031448;28;20313;-52
2023/01/14 08:33:32;;;;;;;10.90;4.45;;;3.70;99.90;;;;;;5035874;28;20100;-58
2023/01/14 08:36:05;;;;;;;6.95;3.75;;;3.70;99.90;;;;;;5037743;28;20346;-57
2023/01/14 08:38:32;;;;;;;;;;;3.80;99.90;;;;;;5038320;28;20558;-59
2023/01/14 08:40:59;;;;;;;7.70;4.78;;;3.90;99.90;;;;;;5038554;28;19905;-59
2023/01/14 08:43:24;;;;;;;9.52;4.80;;;3.90;99.90;;;;;;5038131;28;20480;-58
2023/01/14 08:45:50;;;;;;;10.43;4.28;;;3.90;99.90;;;;;;5037349;28;20045;-58
2023/01/14 08:48:16;;;;;;;6.78;4.28;;;4.00;99.90;;;;;;5037022;28;20072;-55
2023/01/14 08:50:42;;;;;;;5.00;3.80;;;4.00;99.90;;;;;;5037887;28;20053;-57
2023/01/14 08:53:07;;;;;;;8.10;4.10;;;4.10;99.90;;;;;;5037981;28;20048;-58
2023/01/14 08:55:33;;;;;;;4.88;3.10;;;4.20;99.90;;;;;;5037941;28;20108;-55
2023/01/14 08:58:00;;;;;;;9.05;3.78;;;4.20;99.90;;;;;;5036063;28;20057;-55
2023/01/14 09:00:25;;;;;;;8.00;4.65;;;4.20;99.90;;;;;;5036861;28;20021;-59
2023/01/14 09:02:51;;;;;;;12.13;3.67;;;4.30;99.90;;;;;;5035743;28;20404;-56
2023/01/14 09:05:16;;;;;;;7.70;3.83;;;4.40;99.90;;;;;;5037248;28;20029;-58
2023/01/14 09:18:41;;;;;;;6.68;4.15;;;4.90;99.90;;;;;;5037418;28;20036;-56
2023/01/14 09:21:07;;;;;;;34.45;17.25;;;5.10;99.90;;;;;;5037559;28;20022;-57
2023/01/14 09:23:33;;;;;;;12.30;5.10;;;5.30;99.90;;;;;;5037587;28;20420;-57
2023/01/14 09:25:59;;;;;;;7.60;3.70;;;5.40;99.90;;;;;;5037450;28;20033;-55
2023/01/14 09:28:24;;;;;;;4.85;2.92;;;5.50;99.90;;;;;;5037265;28;20040;-56
2023/01/14 09:30:50;;;;;;;7.28;3.92;;;5.60;99.90;;;;;;5037390;28;20091;-57
2023/01/14 09:33:16;;;;;;;9.57;4.20;;;5.80;99.90;;;;;;5037531;28;20057;-57
2023/01/14 09:35:41;;;;;;;6.13;3.22;;;5.90;99.90;;;;;;5037392;28;20457;-58
2023/01/14 09:38:07;;;;;;;5.10;3.38;;;6.10;99.90;;;;;;5037449;28;20026;-58
2023/01/14 09:40:38;;;;;;;6.05;3.25;;;6.40;99.90;;;;;;5036996;28;20453;-56
2023/01/14 09:43:05;;;;;;;5.80;2.47;;;7.50;99.90;;;;;;5037309;28;20021;-59
2023/01/14 09:45:33;;;;;;;4.65;2.65;;;9.10;99.90;;;;;;5033314;28;20175;-57
2023/01/14 09:48:03;;;;;;;6.72;2.80;;;10.70;99.90;;;;;;5034112;28;20063;-56
2023/01/14 09:50:34;;;;;;;4.63;2.40;;;12.30;98.20;;;;;;5034087;28;20036;-59
2023/01/14 09:53:20;;;;;;;5.97;2.95;;;13.70;93.70;;;;;;5034130;28;20060;-56
2023/01/14 09:56:12;;;;;;;4.13;2.42;;;14.60;89.10;;;;;;5033687;28;20014;-57
2023/01/14 09:58:44;;;;;;;3.42;2.45;;;15.50;81.70;;;;;;5034002;28;20144;-58
2023/01/14 10:01:24;;;;;;;3.85;2.00;;;16.10;77.90;;;;;;5033934;28;20411;-59
2023/01/14 10:03:59;;;;;;;5.13;2.10;;;16.30;74.20;;;;;;5033297;28;20049;-59
2023/01/14 10:06:25;;;;;;;14.57;2.50;;;17.30;72.50;;;;;;5034208;28;20025;-59
2023/01/14 10:09:03;;;;;;;5.82;2.42;;;18.20;67.70;;;;;;5033643;28;20035;-59
2023/01/14 10:11:35;;;;;;;3.13;1.80;;;18.70;64.40;;;;;;5033804;28;20124;-59
2023/01/14 10:14:11;;;;;;;3.67;1.73;;;19.10;58.60;;;;;;5033776;28;20033;-59
2023/01/14 10:16:46;;;;;;;5.25;1.67;;;19.10;55.80;;;;;;5033637;28;20018;-58
2023/01/14 10:19:22;;;;;;;3.83;1.40;;;16.20;61.10;;;;;;5048956;28;20035;-58
2023/01/14 10:22:07;;;;;;;5.35;2.20;;;15.30;61.10;;;;;;5053490;28;20482;-58
2023/01/14 10:24:33;;;;;;;7.25;1.92;;;16.10;63.10;;;;;;5053197;28;20060;-58
2023/01/14 10:26:59;;;;;;;3.13;1.60;;;17.90;56.60;;;;;;5053472;28;20060;-58
2023/01/14 10:29:26;;;;;;;3.05;1.38;;;18.50;56.40;;;;;;5035169;28;20029;-55
2023/01/14 10:31:59;;;;;;;5.18;1.60;;;19.00;54.00;;;;;;5032861;28;20017;-58
2023/01/14 10:34:46;;;;;;;2.67;1.40;;;18.90;53.70;;;;;;5033535;28;20052;-56
2023/01/14 10:37:12;;;;;;;4.68;1.98;;;18.10;53.30;;;;;;5028891;28;20061;-58
2023/01/14 10:39:50;;;;;;;11.98;1.80;;;17.30;55.50;;;;;;5032427;28;20033;-57
2023/01/14 10:42:21;;;;;;;1.98;1.27;;;18.70;55.20;;;;;;5033146;28;20080;-53
2023/01/14 10:44:48;;;;;;;2.90;1.65;;;19.80;51.70;;;;;;5032748;28;20405;-55
2023/01/14 10:47:16;;;;;;;6.65;1.77;;;20.20;48.70;;;;;;5032274;28;20030;-54
2023/01/14 10:49:53;;;;;;;6.88;1.88;;;18.80;49.70;;;;;;5033068;28;20104;-56
2023/01/14 10:52:23;;;;;;;5.90;1.60;;;18.00;52.90;;;;;;5033078;28;20097;-56
2023/01/14 10:55:14;;;;;;;6.60;2.45;;;20.20;51.20;;;;;;5032257;28;20029;-56
2023/01/14 10:58:01;;;;;;;4.45;1.02;;;21.30;47.60;;;;;;5032586;28;20037;-55
2023/01/14 11:00:26;;;;;;;3.30;1.58;;;21.50;46.80;;;;;;5032729;28;20594;-56
2023/01/14 11:02:52;;;;;;;6.32;1.52;;;22.20;46.40;;;;;;5030855;28;20025;-56
2023/01/14 11:05:39;;;;;;;4.22;1.38;;;22.90;43.80;;;;;;5032662;28;20026;-58
2023/01/14 11:08:20;;;;;;;4.05;2.13;;;22.90;43.30;;;;;;5032260;28;20152;-57
2023/01/14 11:10:54;;;;;;;6.38;1.65;;;22.00;44.80;;;;;;5032764;28;20029;-57
2023/01/14 11:13:27;;;;;;;4.50;1.50;;;22.20;43.80;;;;;;5036657;28;20005;-57
2023/01/14 11:15:53;;;;;;;3.55;1.23;;;22.70;43.10;;;;;;5041773;28;20021;-59
2023/01/14 11:18:19;;;;;;;3.20;1.40;;;21.30;43.80;;;;;;5021220;28;20040;-57
2023/01/14 11:21:05;;;;;;;4.00;1.65;;;21.90;43.70;;;;;;5032299;28;20108;-57
2023/01/14 11:23:34;;;;;;;6.53;1.40;;;21.20;42.40;;;;;;5010536;28;20029;-59
2023/01/14 11:26:05;;;;;;;5.80;1.77;;;21.20;44.00;;;;;;5001809;28;20030;-59
2023/01/14 11:28:31;;;;;;;2.83;1.35;;;20.90;45.30;;;;;;5001589;28;20443;-59
2023/01/14 11:30:57;;;;;;;2.72;1.50;;;21.40;43.90;;;;;;5002629;28;20129;-58
2023/01/14 11:33:25;;;;;;;7.45;1.88;;;23.30;41.10;;;;;;5017107;28;20466;-57
2023/01/14 11:36:01;;;;;;;4.90;1.25;;;23.30;39.40;;;;;;5001462;28;20522;-58
2023/01/14 11:38:28;;;;;;;5.95;1.33;;;22.00;41.40;;;;;;5003719;28;20156;-56
2023/01/14 11:43:56;;;;;;;4.63;2.20;;;22.90;40.00;;;;;;5002378;28;20180;-59
2023/01/14 11:46:22;;;;;;;3.42;1.63;;;22.20;40.40;;;;;;5001350;28;20070;-56
2023/01/14 11:49:25;;;;;;;5.35;1.50;;;22.00;39.10;;;;;;5001973;28;20110;-58
2023/01/14 11:51:57;;;;;;;6.13;1.77;;;21.40;41.10;;;;;;4960006;28;21559;-58
2023/01/14 11:54:24;;;;;;;6.18;1.77;;;20.60;40.90;;;;;;4995068;28;20053;-58
2023/01/14 11:56:50;;;;;;;9.23;1.85;;;20.60;42.40;;;;;;5001594;28;20030;-58
2023/01/14 11:59:38;;;;;;;47.55;20.33;;;20.10;42.20;;;;;;5002078;28;20064;-56
2023/01/14 12:02:26;;;;;;;4.22;1.50;;;18.90;42.60;;;;;;5001115;28;20030;-54
2023/01/14 12:05:10;;;;;;;7.43;2.03;;;19.30;43.90;;;;;;5001315;28;20037;-58
2023/01/14 12:07:43;;;;;;;11.60;3.92;;;19.50;43.70;;;;;;5002357;28;20060;-59
2023/01/14 12:10:17;;;;;;;7.43;1.98;;;18.60;44.40;;;;;;5002559;28;20591;-57
2023/01/14 12:19:17;;;;;;;5.70;2.28;;;16.70;49.00;;;;;;5002371;28;20057;-57
2023/01/14 12:21:55;;;;;;;15.75;7.35;;;15.60;51.00;;;;;;5000115;28;20065;-57
2023/01/14 12:24:44;;;;;;;5.63;2.67;;;15.30;52.50;;;;;;5003872;28;20431;-56
2023/01/14 12:27:42;;;;;;;16.50;3.75;;;14.50;51.60;;;;;;5000267;28;20112;-59
2023/01/14 12:30:28;;;;;;;3.35;2.35;;;14.10;56.00;;;;;;4995539;28;20038;-54
2023/01/14 12:32:53;;;;;;;6.18;1.70;;;14.30;53.60;;;;;;4993370;28;20140;-55
2023/01/14 12:35:21;;;;;;;4.45;1.90;;;14.10;54.30;;;;;;5002023;28;20117;-58
2023/01/14 12:38:02;;;;;;;10.43;2.13;;;13.90;56.00;;;;;;5000255;28;20026;-57
2023/01/14 12:46:23;;;;;;;7.65;2.15;;;12.50;59.10;;;;;;5031113;28;20084;-57
2023/01/14 12:48:49;;;;;;;6.90;2.17;;;12.00;59.90;;;;;;5031114;28;20061;-57
2023/01/14 12:51:22;;;;;;;3.58;2.00;;;11.90;63.30;;;;;;5029741;28;20112;-55
2023/01/14 12:54:24;;;;;;;5.43;2.07;;;11.90;62.30;;;;;;5030662;28;20017;-58
2023/01/14 12:56:53;;;;;;;6.68;2.08;;;12.00;59.90;;;;;;5030460;28;20264;-57
2023/01/14 12:59:24;;;;;;;4.18;1.70;;;11.80;62.70;;;;;;5030805;28;20108;-56
2023/01/14 13:02:25;;;;;;;6.13;1.95;;;11.60;62.70;;;;;;5030707;28;20049;-54
2023/01/14 13:05:13;;;;;;;9.80;4.35;;;11.60;61.90;;;;;;5027593;28;20499;-58
2023/01/14 13:07:57;;;;;;;4.45;2.08;;;11.70;59.90;;;;;;5030603;28;20412;-57
2023/01/14 13:11:00;;;;;;;5.10;2.50;;;11.90;62.00;;;;;;5031289;28;20128;-58
2023/01/14 13:13:26;;;;;;;3.83;1.95;;;12.00;60.60;;;;;;5030757;28;20075;-58
2023/01/14 13:15:52;;;;;;;5.68;2.08;;;12.10;61.90;;;;;;5031055;28;20415;-57
2023/01/14 13:18:36;;;;;;;3.05;1.40;;;12.30;60.50;;;;;;5031706;28;20017;-57
2023/01/14 13:21:01;;;;;;;3.97;1.85;;;12.10;59.40;;;;;;5034820;28;20244;-56
2023/01/14 13:23:35;;;;;;;3.67;2.00;;;12.10;59.30;;;;;;5034459;28;20534;-58
2023/01/14 13:26:02;;;;;;;9.32;2.10;;;11.80;60.90;;;;;;5034982;28;20561;-57
2023/01/14 13:28:27;;;;;;;7.75;2.08;;;11.70;60.90;;;;;;5034871;28;20038;-56
2023/01/14 13:30:59;;;;;;;6.35;1.80;;;11.70;62.40;;;;;;5034312;28;20048;-56
2023/01/14 13:33:32;;;;;;;2.05;1.85;;;11.70;60.90;;;;;;5034622;28;20495;-57
2023/01/14 13:36:10;;;;;;;3.08;1.63;;;11.70;61.40;;;;;;5034616;28;20030;-58
2023/01/14 13:38:43;;;;;;;3.13;1.58;;;11.30;61.80;;;;;;5033056;28;20037;-57
2023/01/14 13:41:12;;;;;;;3.53;1.83;;;11.10;61.60;;;;;;5034771;28;20061;-55
2023/01/14 13:43:39;;;;;;;2.70;1.77;;;10.90;62.20;;;;;;5034325;28;20041;-58
2023/01/14 13:46:13;;;;;;;8.98;1.60;;;10.90;63.90;;;;;;5034381;28;20045;-58
2023/01/14 13:48:41;;;;;;;3.80;2.13;;;10.80;66.10;;;;;;5034151;28;20097;-58
2023/01/14 13:51:26;;;;;;;5.50;1.60;;;10.80;66.70;;;;;;5034223;28;20026;-57